Time;durP1;ratioP1;P1;durP2;ratioP2;P2;SDS_P1;SDS_P2;PMS_P1;PMS_P2;Temp;Humidity;BMP_temperature;BMP_pressure;BME280_temperature;BME280_humidity;BME280_pressure;Samples;Min_cycle;Max_cycle;Signal;HPM_P1;HPM_P2
2022/03/26 00:00:27;;;;;;;42.50;22.45;;;;;;;7.77;47.71;97171.03;5026079;28;20046;-75
2022/03/26 00:02:54;;;;;;;45.40;22.73;;;;;;;7.73;47.99;97175.41;5026482;28;20045;-77
2022/03/26 00:05:21;;;;;;;46.33;23.48;;;;;;;7.69;48.22;97179.75;5026236;28;20153;-77
2022/03/26 00:07:48;;;;;;;43.67;22.80;;;;;;;7.64;48.85;97175.19;5025478;28;20511;-76
2022/03/26 00:10:14;;;;;;;42.70;20.90;;;;;;;7.57;49.16;97172.78;5026382;28;20042;-77
2022/03/26 00:12:41;;;;;;;40.47;22.13;;;;;;;7.50;48.85;97172.25;5026458;28;20052;-78
2022/03/26 00:15:10;;;;;;;43.08;22.77;;;;;;;7.45;48.89;97174.97;5026417;28;20060;-77
2022/03/26 00:17:38;;;;;;;42.22;22.73;;;;;;;7.38;48.76;97169.06;5025553;28;20690;-77
2022/03/26 00:20:06;;;;;;;46.75;21.98;;;;;;;7.31;49.18;97179.41;5026344;28;20073;-77
2022/03/26 00:22:32;;;;;;;45.33;22.38;;;;;;;7.24;49.13;97184.28;5026435;28;20045;-77
2022/03/26 00:24:59;;;;;;;47.05;23.05;;;;;;;7.15;49.26;97183.22;5026415;28;20443;-77
2022/03/26 00:27:26;;;;;;;49.38;22.70;;;;;;;6.95;49.64;97193.03;5025410;28;20503;-78
2022/03/26 00:29:53;;;;;;;46.22;22.08;;;;;;;6.80;49.91;97201.19;5026021;28;20416;-76
2022/03/26 00:32:19;;;;;;;51.50;23.05;;;;;;;6.72;49.72;97205.22;5026516;28;20057;-77
2022/03/26 00:34:48;;;;;;;42.15;22.38;;;;;;;6.70;50.36;97201.19;5025808;28;20085;-76
2022/03/26 00:37:16;;;;;;;45.60;22.00;;;;;;;6.72;50.77;97199.00;5025689;28;20054;-78
2022/03/26 00:39:43;;;;;;;43.15;22.95;;;;;;;6.74;51.01;97196.84;5025507;28;20072;-76
2022/03/26 00:42:10;;;;;;;45.17;22.88;;;;;;;6.77;51.18;97199.81;5025826;28;20073;-77
2022/03/26 00:44:36;;;;;;;46.30;23.20;;;;;;;6.83;51.82;97189.78;5027050;28;20045;-77
2022/03/26 00:47:04;;;;;;;46.00;23.40;;;;;;;6.88;52.15;97200.59;5025686;28;20060;-77
2022/03/26 00:49:31;;;;;;;48.50;23.48;;;;;;;6.93;52.14;97199.78;5026201;28;20053;-77
2022/03/26 00:51:59;;;;;;;44.15;23.13;;;;;;;6.97;51.86;97201.69;5025528;28;20053;-77
2022/03/26 00:54:26;;;;;;;45.92;23.38;;;;;;;7.00;52.05;97201.16;5025704;28;20057;-77
2022/03/26 00:56:52;;;;;;;44.78;23.95;;;;;;;7.03;51.81;97206.00;5025169;28;20055;-76
2022/03/26 00:59:19;;;;;;;41.63;22.50;;;;;;;7.05;51.79;97213.88;5025897;28;20579;-76
2022/03/26 01:01:46;;;;;;;41.55;23.55;;;;;;;7.02;51.52;97212.50;5025507;28;20404;-76
2022/03/26 01:04:13;;;;;;;45.03;23.17;;;;;;;6.93;51.45;97205.19;5026030;28;20049;-77
2022/03/26 01:06:39;;;;;;;41.97;22.80;;;;;;;6.85;51.47;97203.88;5025583;28;20385;-76
2022/03/26 01:09:07;;;;;;;46.05;23.27;;;;;;;6.84;51.59;97201.41;5025074;28;20045;-76
2022/03/26 01:11:34;;;;;;;41.53;23.08;;;;;;;6.84;51.54;97206.84;5025813;28;20154;-77
2022/03/26 01:14:01;;;;;;;45.17;24.42;;;;;;;6.86;51.40;97200.06;5026903;28;20154;-77
2022/03/26 01:16:28;;;;;;;48.92;24.58;;;;;;;6.88;51.88;97203.31;5025607;28;20053;-79
2022/03/26 01:18:56;;;;;;;47.72;23.67;;;;;;;6.90;51.69;97201.16;5024963;28;20464;-77
2022/03/26 01:21:23;;;;;;;48.53;24.50;;;;;;;6.93;51.08;97200.59;5025721;28;20060;-77
2022/03/26 01:23:50;;;;;;;45.30;23.40;;;;;;;6.99;51.07;97202.22;5025716;28;20052;-77
2022/03/26 01:26:19;;;;;;;46.05;22.40;;;;;;;7.03;50.95;97191.66;5029106;28;20696;-77
2022/03/26 01:28:46;;;;;;;47.72;23.73;;;;;;;7.04;50.46;97185.94;5028645;28;20510;-77
2022/03/26 01:31:13;;;;;;;43.15;22.92;;;;;;;7.09;50.43;97190.53;5029094;28;20049;-77
2022/03/26 01:33:39;;;;;;;42.28;22.52;;;;;;;7.13;50.41;97177.28;5028986;28;20045;-77
2022/03/26 01:36:08;;;;;;;43.65;22.42;;;;;;;7.18;50.08;97193.50;5028104;28;20061;-77
2022/03/26 01:38:35;;;;;;;47.42;23.60;;;;;;;7.20;50.10;97196.75;5028944;28;20045;-77
2022/03/26 01:41:01;;;;;;;44.45;23.80;;;;;;;6.91;50.39;97200.06;5028769;28;20057;-77
2022/03/26 01:43:29;;;;;;;46.22;24.88;;;;;;;6.68;50.83;97209.59;5030677;28;20057;-78
2022/03/26 01:45:56;;;;;;;41.90;23.63;;;;;;;6.41;51.24;97209.84;5028439;28;20695;-77
2022/03/26 01:48:22;;;;;;;43.83;23.00;;;;;;;6.34;51.60;97211.19;5028884;28;20053;-77
2022/03/26 01:50:49;;;;;;;44.15;24.13;;;;;;;6.29;52.09;97206.59;5028269;28;20068;-76
2022/03/26 01:53:15;;;;;;;41.78;22.27;;;;;;;6.27;51.95;97203.34;5028504;28;20056;-77
2022/03/26 01:55:42;;;;;;;45.25;23.50;;;;;;;6.29;52.15;97198.47;5028258;28;20065;-78
2022/03/26 01:58:09;;;;;;;44.15;23.00;;;;;;;6.33;52.15;97199.56;5028003;28;20164;-77
2022/03/26 02:00:37;;;;;;;51.78;23.38;;;;;;;6.35;52.84;97199.28;5028745;28;20049;-76
2022/03/26 02:03:07;;;;;;;46.20;22.55;;;;;;;6.37;52.28;97191.72;5027900;28;20053;-77
2022/03/26 02:05:34;;;;;;;45.03;22.38;;;;;;;6.41;52.06;97199.00;5028713;28;20049;-77
2022/03/26 02:08:00;;;;;;;44.35;22.80;;;;;;;6.48;52.08;97194.16;5027465;28;20041;-77
2022/03/26 02:10:27;;;;;;;48.78;23.98;;;;;;;6.51;52.31;97196.31;5028636;28;20041;-77
2022/03/26 02:12:53;;;;;;;44.75;23.42;;;;;;;6.53;52.00;97185.25;5029792;28;20049;-76
2022/03/26 02:15:19;;;;;;;48.83;25.33;;;;;;;6.52;51.36;97184.44;5028235;28;20050;-77
2022/03/26 02:17:47;;;;;;;44.50;22.85;;;;;;;6.58;51.41;97193.34;5027418;28;20915;-77
2022/03/26 02:20:17;;;;;;;47.65;23.70;;;;;;;6.63;51.72;97193.34;5027919;28;20053;-77
2022/03/26 02:22:43;;;;;;;40.63;22.58;;;;;;;6.63;52.18;97184.41;5028036;28;20055;-77
2022/03/26 02:25:10;;;;;;;46.28;23.90;;;;;;;6.42;51.03;97189.84;5027503;28;20045;-77
2022/03/26 02:27:38;;;;;;;46.80;24.33;;;;;;;6.31;51.83;97192.78;5027896;28;20049;-77
2022/03/26 02:30:05;;;;;;;45.38;24.35;;;;;;;6.26;52.00;97188.19;5026952;28;20046;-77
2022/03/26 02:32:32;;;;;;;46.30;23.85;;;;;;;6.23;52.37;97191.44;5028478;28;20140;-77
2022/03/26 02:34:59;;;;;;;47.10;23.25;;;;;;;6.23;52.33;97197.66;5027256;28;20072;-77
2022/03/26 02:37:26;;;;;;;42.55;23.27;;;;;;;6.23;52.28;97203.06;5027744;28;20439;-77
2022/03/26 02:39:53;;;;;;;44.53;23.33;;;;;;;6.18;52.60;97200.38;5027688;28;20132;-77
2022/03/26 02:42:19;;;;;;;47.33;23.25;;;;;;;6.09;52.89;97198.47;5028099;28;20068;-77
2022/03/26 02:44:46;;;;;;;47.13;24.60;;;;;;;6.05;52.91;97205.47;5028781;28;20049;-76
2022/03/26 02:47:13;;;;;;;43.90;23.42;;;;;;;5.96;53.04;97203.31;5026799;28;20411;-77
2022/03/26 02:49:40;;;;;;;47.72;23.67;;;;;;;5.98;52.74;97200.34;5027872;28;20045;-77
2022/03/26 02:52:07;;;;;;;44.38;22.67;;;;;;;5.99;52.56;97200.06;5026728;28;20072;-77
2022/03/26 02:54:35;;;;;;;43.38;22.48;;;;;;;6.01;52.62;97208.72;5028426;28;20692;-78
2022/03/26 02:57:02;;;;;;;50.75;22.80;;;;;;;6.05;52.83;97200.88;5026363;28;20058;-76
2022/03/26 02:59:29;;;;;;;50.33;23.30;;;;;;;6.09;52.97;97206.56;5028138;28;20045;-77
2022/03/26 03:01:55;;;;;;;44.65;23.75;;;;;;;6.06;52.86;97204.41;5027168;28;20623;-76
2022/03/26 03:04:22;;;;;;;46.45;23.45;;;;;;;5.97;52.80;97204.94;5027631;28;20143;-77
2022/03/26 03:06:49;;;;;;;48.63;23.63;;;;;;;5.95;52.91;97196.28;5026732;28;20704;-76
2022/03/26 03:09:15;;;;;;;39.97;22.35;;;;;;;5.93;52.92;97198.44;5026540;28;20052;-77
2022/03/26 03:11:43;;;;;;;44.97;22.60;;;;;;;5.91;52.84;97208.72;5027399;28;20076;-77
2022/03/26 03:14:10;;;;;;;52.28;24.10;;;;;;;5.93;52.61;97203.84;5026762;28;20041;-77
2022/03/26 03:16:38;;;;;;;51.85;24.55;;;;;;;5.89;52.51;97205.41;5027032;28;20565;-77
2022/03/26 03:19:05;;;;;;;56.70;23.55;;;;;;;5.86;52.91;97205.16;5025849;28;20057;-77
2022/03/26 03:21:31;;;;;;;55.78;24.75;;;;;;;5.84;53.17;97210.00;5027508;28;20678;-77
2022/03/26 03:23:58;;;;;;;48.28;23.30;;;;;;;5.84;53.57;97216.22;5026562;28;20042;-77
2022/03/26 03:26:25;;;;;;;47.40;23.77;;;;;;;5.78;53.48;97211.88;5026369;28;20049;-78
2022/03/26 03:28:53;;;;;;;46.72;23.63;;;;;;;5.71;53.15;97211.31;5026325;28;20468;-76
2022/03/26 03:31:19;;;;;;;46.75;23.65;;;;;;;5.65;53.80;97209.69;5026464;28;20760;-76
2022/03/26 03:33:46;;;;;;;48.03;24.17;;;;;;;5.62;54.06;97213.72;5027111;28;20049;-77
2022/03/26 03:36:13;;;;;;;48.55;23.58;;;;;;;5.62;54.37;97210.19;5026063;28;20103;-78
2022/03/26 03:38:39;;;;;;;42.80;22.88;;;;;;;5.58;53.63;97211.81;5026979;28;20050;-76
2022/03/26 03:41:06;;;;;;;45.65;22.45;;;;;;;5.47;52.91;97214.47;5024654;28;20183;-77
2022/03/26 03:43:33;;;;;;;41.70;22.13;;;;;;;5.38;53.39;97210.66;5027419;28;20049;-76
2022/03/26 03:46:01;;;;;;;44.70;23.10;;;;;;;5.32;53.96;97209.00;5025981;28;20049;-76
2022/03/26 03:48:27;;;;;;;46.40;23.58;;;;;;;5.26;54.75;97210.06;5026533;28;20056;-76
2022/03/26 03:50:54;;;;;;;48.88;22.90;;;;;;;5.23;54.98;97208.69;5026342;28;20525;-77
2022/03/26 03:53:20;;;;;;;46.53;23.13;;;;;;;5.22;55.06;97208.97;5026219;28;20045;-77
2022/03/26 03:55:47;;;;;;;48.30;23.25;;;;;;;5.23;55.19;97210.59;5026487;28;20057;-77
2022/03/26 03:58:13;;;;;;;48.13;23.95;;;;;;;5.23;55.10;97207.91;5025660;28;20048;-76
2022/03/26 04:00:39;;;;;;;50.50;23.83;;;;;;;5.19;55.07;97204.09;5026798;28;20056;-76
2022/03/26 04:03:07;;;;;;;47.60;23.88;;;;;;;5.15;55.66;97194.88;5025858;28;20060;-76
2022/03/26 04:05:34;;;;;;;47.97;24.35;;;;;;;5.15;55.76;97197.56;5026925;28;20393;-77
2022/03/26 04:08:00;;;;;;;43.03;22.67;;;;;;;5.14;55.66;97193.25;5025436;28;20388;-78
2022/03/26 04:10:27;;;;;;;44.47;22.42;;;;;;;5.15;55.74;97200.28;5026584;28;20041;-76
2022/03/26 04:12:53;;;;;;;45.90;23.02;;;;;;;5.15;55.44;97208.38;5028215;28;20049;-76
2022/03/26 04:15:20;;;;;;;43.97;22.95;;;;;;;5.14;55.22;97217.56;5026180;28;20048;-76
2022/03/26 04:17:49;;;;;;;49.03;23.65;;;;;;;5.03;54.53;97221.28;5026016;28;20058;-76
2022/03/26 04:20:16;;;;;;;56.17;23.65;;;;;;;4.87;54.36;97207.69;5025854;28;20061;-78
2022/03/26 04:22:43;;;;;;;53.33;25.05;;;;;;;4.76;54.44;97216.78;5026271;28;20412;-75
2022/03/26 04:25:11;;;;;;;49.53;22.65;;;;;;;4.69;55.01;97216.19;5025487;28;20052;-77
2022/03/26 04:27:37;;;;;;;49.47;23.38;;;;;;;4.62;55.74;97204.81;5026158;28;20053;-76
2022/03/26 04:30:05;;;;;;;52.78;24.27;;;;;;;4.60;56.51;97212.38;5025381;28;20516;-76
2022/03/26 04:32:31;;;;;;;47.80;23.95;;;;;;;4.58;56.89;97215.31;5026884;28;20063;-76
2022/03/26 04:34:58;;;;;;;44.92;23.60;;;;;;;4.58;57.32;97206.41;5025857;28;20090;-77
2022/03/26 04:37:26;;;;;;;50.47;24.80;;;;;;;4.54;57.24;97213.38;5025598;28;20132;-76
2022/03/26 04:39:52;;;;;;;46.33;22.95;;;;;;;4.50;57.22;97207.69;5025976;28;20053;-77
2022/03/26 04:42:19;;;;;;;49.10;24.00;;;;;;;4.53;57.75;97223.34;5038067;28;20041;-75
2022/03/26 04:44:45;;;;;;;48.10;24.58;;;;;;;4.56;57.84;97222.03;5046167;28;20526;-77
2022/03/26 04:47:12;;;;;;;46.65;24.05;;;;;;;4.58;57.44;97223.41;5044912;28;20052;-78
2022/03/26 04:49:38;;;;;;;47.25;23.33;;;;;;;4.61;57.01;97222.06;5046338;28;20500;-78
2022/03/26 04:52:05;;;;;;;47.30;22.73;;;;;;;4.62;55.80;97224.50;5044800;28;20891;-77
2022/03/26 04:54:33;;;;;;;42.40;22.67;;;;;;;4.57;56.15;97223.66;5046679;28;20049;-76
2022/03/26 04:57:00;;;;;;;45.95;23.55;;;;;;;4.51;55.54;97219.31;5045103;28;20071;-78
2022/03/26 04:59:26;;;;;;;49.47;23.65;;;;;;;4.44;55.71;97216.84;5049266;28;20049;-78
2022/03/26 05:01:53;;;;;;;47.53;22.67;;;;;;;4.37;56.56;97225.13;5049297;28;20055;-78
2022/03/26 05:04:19;;;;;;;42.63;21.88;;;;;;;4.35;56.93;97216.47;5049551;28;20045;-79
2022/03/26 05:06:45;;;;;;;52.45;22.67;;;;;;;4.35;57.24;97205.69;5049178;28;20060;-77
2022/03/26 05:09:12;;;;;;;49.92;23.45;;;;;;;4.38;57.42;97218.66;5048953;28;20041;-77
2022/03/26 05:11:40;;;;;;;51.38;24.73;;;;;;;4.40;57.65;97224.63;5040916;28;20052;-78
2022/03/26 05:14:07;;;;;;;43.58;21.27;;;;;;;4.43;57.15;97232.16;5028471;28;20049;-78
2022/03/26 05:16:33;;;;;;;48.90;22.48;;;;;;;4.38;56.66;97226.72;5029446;28;20420;-77
2022/03/26 05:19:00;;;;;;;50.30;23.92;;;;;;;4.33;56.69;97226.72;5028456;28;20504;-75
2022/03/26 05:21:27;;;;;;;46.08;21.90;;;;;;;4.29;56.55;97225.59;5029473;28;20126;-76
2022/03/26 05:23:53;;;;;;;49.58;23.50;;;;;;;4.26;56.68;97228.78;5028982;28;20057;-77
2022/03/26 05:26:22;;;;;;;43.28;22.50;;;;;;;4.23;56.94;97232.03;5028955;28;20519;-79
2022/03/26 05:28:51;;;;;;;51.15;23.70;;;;;;;4.21;57.29;97231.44;5028853;28;20045;-76
2022/03/26 05:31:18;;;;;;;50.67;24.27;;;;;;;4.23;57.45;97233.88;5028571;28;20057;-76
2022/03/26 05:33:44;;;;;;;43.75;22.92;;;;;;;4.24;57.68;97236.34;5028795;28;20472;-76
2022/03/26 05:36:10;;;;;;;49.15;23.77;;;;;;;4.26;57.95;97234.19;5028260;28;20794;-76
2022/03/26 05:38:37;;;;;;;51.63;23.77;;;;;;;4.26;57.66;97244.16;5029379;28;20056;-76
2022/03/26 05:41:04;;;;;;;44.13;22.60;;;;;;;4.26;57.39;97244.97;5030381;28;20061;-76
2022/03/26 05:43:31;;;;;;;51.67;24.25;;;;;;;4.27;57.79;97243.91;5029053;28;20415;-76
2022/03/26 05:45:58;;;;;;;47.22;23.63;;;;;;;4.29;57.59;97249.88;5028309;28;20110;-76
2022/03/26 05:48:25;;;;;;;48.05;24.42;;;;;;;4.28;57.59;97259.03;5028638;28;20053;-76
2022/03/26 05:50:52;;;;;;;46.22;23.45;;;;;;;4.29;57.69;97259.84;5028585;28;20065;-77
2022/03/26 05:53:18;;;;;;;51.33;25.83;;;;;;;4.31;57.42;97263.88;5028240;28;20052;-76
2022/03/26 05:55:45;;;;;;;50.90;24.85;;;;;;;4.37;57.31;97264.75;5028614;28;20060;-76
2022/03/26 05:58:12;;;;;;;55.25;25.13;;;;;;;4.43;57.23;97263.72;5028094;28;20046;-77
2022/03/26 06:00:38;;;;;;;51.05;24.88;;;;;;;4.50;57.33;97260.84;5028992;28;20143;-76
2022/03/26 06:03:06;;;;;;;51.47;25.60;;;;;;;4.56;57.67;97270.59;5027921;28;20060;-76
2022/03/26 06:05:33;;;;;;;51.35;24.75;;;;;;;4.65;57.89;97263.66;5028924;28;20061;-77
2022/03/26 06:07:59;;;;;;;53.42;24.48;;;;;;;4.69;57.97;97270.97;5029052;28;20057;-76
2022/03/26 06:10:27;;;;;;;49.10;25.42;;;;;;;4.78;57.77;97283.97;5028088;28;20041;-76
2022/03/26 06:12:53;;;;;;;53.65;26.05;;;;;;;4.83;58.22;97276.75;5029923;28;20052;-78
2022/03/26 06:15:20;;;;;;;54.70;27.25;;;;;;;4.80;57.85;97277.25;5027871;28;20045;-77
2022/03/26 06:17:47;;;;;;;50.95;25.83;;;;;;;4.88;57.75;97284.06;5028241;28;20060;-77
2022/03/26 06:20:14;;;;;;;56.58;26.73;;;;;;;4.96;58.31;97284.41;5027603;28;20057;-79
2022/03/26 06:22:41;;;;;;;52.70;25.52;;;;;;;5.05;57.66;97284.72;5028128;28;20046;-77
2022/03/26 06:25:08;;;;;;;55.55;26.45;;;;;;;5.14;56.52;97283.16;5026509;28;20046;-77
2022/03/26 06:27:34;;;;;;;55.47;27.08;;;;;;;5.26;56.08;97287.56;5028060;28;20049;-77
2022/03/26 06:30:01;;;;;;;56.15;27.30;;;;;;;5.36;55.77;97291.13;5026903;28;20500;-76
2022/03/26 06:32:28;;;;;;;59.95;27.80;;;;;;;5.45;55.65;97286.88;5027506;28;20702;-76
2022/03/26 06:34:54;;;;;;;53.00;24.77;;;;;;;5.53;54.99;97290.13;5027814;28;20407;-76
2022/03/26 06:37:22;;;;;;;60.25;27.08;;;;;;;5.62;55.03;97299.38;5027657;28;20677;-76
2022/03/26 06:39:48;;;;;;;54.53;26.73;;;;;;;5.68;55.55;97298.31;5027302;28;20053;-77
2022/03/26 06:42:15;;;;;;;56.53;26.15;;;;;;;5.80;55.73;97301.63;5029275;28;20541;-78
2022/03/26 06:44:42;;;;;;;56.10;27.83;;;;;;;5.89;56.11;97300.03;5033701;28;20049;-76
2022/03/26 06:47:09;;;;;;;57.33;27.98;;;;;;;6.00;55.74;97307.16;5046939;28;20055;-77
2022/03/26 06:49:35;;;;;;;61.00;28.90;;;;;;;6.11;56.46;97309.84;5048117;28;20045;-77
2022/03/26 06:52:02;;;;;;;49.17;25.45;;;;;;;6.27;56.43;97308.84;5046795;28;20057;-75
2022/03/26 06:54:29;;;;;;;56.90;26.65;;;;;;;6.40;56.06;97307.50;5048007;28;20052;-76
2022/03/26 06:56:56;;;;;;;51.90;25.70;;;;;;;6.55;55.58;97304.84;5047158;28;20053;-76
2022/03/26 06:59:23;;;;;;;61.05;27.60;;;;;;;6.66;54.76;97308.34;5047385;28;20042;-78
2022/03/26 07:01:50;;;;;;;55.00;26.60;;;;;;;6.61;53.78;97305.66;5042988;28;20069;-74
2022/03/26 07:04:16;;;;;;;49.92;26.33;;;;;;;6.80;54.43;97306.75;5026601;28;20049;-74
2022/03/26 07:06:43;;;;;;;51.72;25.33;;;;;;;6.93;54.01;97311.63;5027418;28;20052;-73
2022/03/26 07:09:09;;;;;;;53.78;26.33;;;;;;;7.12;52.70;97316.50;5026902;28;20057;-73
2022/03/26 07:11:37;;;;;;;50.00;25.60;;;;;;;7.31;52.83;97310.25;5029442;28;20397;-73
2022/03/26 07:14:04;;;;;;;47.15;24.67;;;;;;;7.54;52.60;97303.41;5027394;28;20669;-73
2022/03/26 07:16:30;;;;;;;47.85;24.48;;;;;;;8.10;50.62;97310.53;5027908;28;20041;-72
2022/03/26 07:18:56;;;;;;;47.50;23.67;;;;;;;9.18;46.88;97313.38;5026812;28;20092;-73
2022/03/26 07:21:23;;;;;;;45.42;23.60;;;;;;;10.25;43.97;97314.97;5026427;28;20046;-73
2022/03/26 07:23:49;;;;;;;53.00;24.85;;;;;;;11.21;42.92;97308.06;5026675;28;20076;-72
2022/03/26 07:26:16;;;;;;;44.00;23.58;;;;;;;12.06;39.58;97314.19;5026894;28;20053;-74
2022/03/26 07:28:44;;;;;;;48.10;25.38;;;;;;;12.85;38.08;97319.28;5026749;28;20052;-73
2022/03/26 07:31:10;;;;;;;47.00;24.35;;;;;;;13.46;37.22;97315.06;5026576;28;20059;-73
2022/03/26 07:33:37;;;;;;;44.47;24.08;;;;;;;14.02;34.85;97312.78;5027074;28;20053;-73
2022/03/26 07:36:04;;;;;;;44.47;23.52;;;;;;;14.53;33.10;97327.78;5026419;28;20045;-73
2022/03/26 07:38:30;;;;;;;44.17;24.05;;;;;;;14.88;31.82;97325.88;5027280;28;20056;-73
2022/03/26 07:40:57;;;;;;;43.38;23.17;;;;;;;15.07;31.36;97325.56;5028855;28;20756;-73
2022/03/26 07:43:23;;;;;;;46.88;24.60;;;;;;;15.29;30.20;97311.66;5026995;28;20159;-73
2022/03/26 07:45:51;;;;;;;41.55;24.08;;;;;;;15.52;30.19;97316.94;5026475;28;20397;-72
2022/03/26 07:48:18;;;;;;;49.05;23.98;;;;;;;15.83;29.10;97320.28;5027244;28;20084;-72
2022/03/26 07:50:44;;;;;;;43.20;23.05;;;;;;;16.07;30.00;97307.91;5026409;28;20057;-73
2022/03/26 07:53:11;;;;;;;44.45;24.52;;;;;;;16.41;29.53;97317.91;5026422;28;20044;-73
2022/03/26 07:55:38;;;;;;;42.88;23.88;;;;;;;16.58;29.11;97322.50;5026248;28;20160;-74
2022/03/26 07:58:04;;;;;;;47.47;24.83;;;;;;;16.91;29.59;97326.19;5026320;28;20694;-72
2022/03/26 08:00:31;;;;;;;42.60;23.42;;;;;;;17.37;27.82;97332.59;5026094;28;20491;-75
2022/03/26 08:02:58;;;;;;;43.40;23.85;;;;;;;17.51;28.87;97326.00;5026465;28;20053;-74
2022/03/26 08:05:26;;;;;;;43.97;24.80;;;;;;;17.71;30.97;97322.38;5025990;28;20404;-74
2022/03/26 08:07:53;;;;;;;42.03;24.45;;;;;;;17.93;27.73;97326.69;5025705;28;20049;-74
2022/03/26 08:10:20;;;;;;;49.83;24.45;;;;;;;18.03;28.76;97328.22;5026523;28;20053;-75
2022/03/26 08:12:46;;;;;;;45.95;24.73;;;;;;;18.31;26.79;97333.84;5028346;28;20056;-74
2022/03/26 08:15:13;;;;;;;41.50;24.40;;;;;;;18.56;26.48;97338.22;5026335;28;20049;-74
2022/03/26 08:17:39;;;;;;;45.05;24.77;;;;;;;18.82;25.96;97342.59;5025669;28;20080;-74
2022/03/26 08:20:11;;;;;;;40.97;24.95;;;;;;;19.04;26.12;97337.34;5026023;28;20053;-75
2022/03/26 08:22:37;;;;;;;39.17;24.45;;;;;;;19.11;25.79;97342.31;5026172;28;20084;-75
2022/03/26 08:25:04;;;;;;;40.35;24.85;;;;;;;19.26;25.94;97337.97;5025674;28;20049;-75
2022/03/26 08:27:31;;;;;;;46.83;25.58;;;;;;;19.68;25.25;97341.19;5026162;28;20053;-75
2022/03/26 08:29:57;;;;;;;41.22;24.05;;;;;;;19.49;24.98;97341.81;5026153;28;20061;-75
2022/03/26 08:32:24;;;;;;;40.03;24.67;;;;;;;19.83;25.03;97339.59;5025908;28;20041;-75
2022/03/26 08:34:50;;;;;;;41.63;24.70;;;;;;;20.20;23.91;97336.59;5029612;28;20152;-75
2022/03/26 08:37:18;;;;;;;44.13;24.60;;;;;;;20.33;24.42;97335.34;5030123;28;20578;-75
2022/03/26 08:39:45;;;;;;;43.40;24.55;;;;;;;20.80;23.89;97342.81;5030080;28;20053;-75
2022/03/26 08:42:11;;;;;;;44.38;25.13;;;;;;;21.10;23.71;97346.66;5031840;28;20053;-73
2022/03/26 08:44:38;;;;;;;37.45;23.20;;;;;;;21.13;21.58;97349.84;5029915;28;20049;-73
2022/03/26 08:47:06;;;;;;;41.63;23.88;;;;;;;21.00;22.81;97352.75;5029518;28;20053;-73
2022/03/26 08:49:33;;;;;;;41.45;24.42;;;;;;;20.94;22.24;97343.13;5029837;28;20053;-74
2022/03/26 08:51:59;;;;;;;39.80;24.27;;;;;;;21.38;22.54;97348.44;5029593;28;20510;-75
2022/03/26 08:54:27;;;;;;;44.88;25.75;;;;;;;21.38;21.53;97348.44;5030202;28;20049;-75
2022/03/26 08:56:54;;;;;;;38.95;24.65;;;;;;;21.55;22.06;97345.22;5029538;28;20053;-75
2022/03/26 08:59:22;;;;;;;41.58;24.08;;;;;;;21.59;21.40;97348.88;5030192;28;20052;-74
2022/03/26 09:01:49;;;;;;;42.55;24.50;;;;;;;21.88;22.06;97349.44;5029134;28;20123;-73
2022/03/26 09:04:15;;;;;;;35.17;23.83;;;;;;;21.87;21.39;97350.59;5029667;28;20049;-74
2022/03/26 09:06:42;;;;;;;38.28;24.48;;;;;;;21.75;21.79;97348.00;5029095;28;20045;-74
2022/03/26 09:09:08;;;;;;;39.60;24.58;;;;;;;21.77;21.71;97348.41;5029429;28;20049;-73
2022/03/26 09:11:36;;;;;;;38.58;24.58;;;;;;;21.74;21.45;97351.94;5031810;28;20053;-74
2022/03/26 09:14:03;;;;;;;37.92;23.65;;;;;;;21.53;21.45;97357.84;5028755;28;20046;-75
2022/03/26 09:16:30;;;;;;;43.22;24.20;;;;;;;21.42;21.87;97346.56;5029618;28;20072;-75
2022/03/26 09:19:00;;;;;;;39.33;24.55;;;;;;;21.08;22.68;97345.41;5029067;28;20516;-74
2022/03/26 09:21:26;;;;;;;42.90;25.58;;;;;;;20.83;23.28;97337.38;5029456;28;20041;-74
2022/03/26 09:23:53;;;;;;;38.75;24.20;;;;;;;20.72;22.82;97341.03;5028902;28;20056;-73
2022/03/26 09:26:19;;;;;;;41.70;24.73;;;;;;;20.55;23.47;97343.03;5029024;28;20076;-74
2022/03/26 09:28:47;;;;;;;38.10;23.67;;;;;;;20.48;23.38;97337.31;5028884;28;20048;-73
2022/03/26 09:31:14;;;;;;;42.88;24.35;;;;;;;20.44;24.02;97330.88;5029118;28;20049;-73
2022/03/26 09:33:40;;;;;;;39.42;24.50;;;;;;;20.63;23.64;97334.91;5029021;28;20052;-74
2022/03/26 09:36:07;;;;;;;49.10;25.15;;;;;;;20.69;23.25;97331.50;5028466;28;20045;-73
2022/03/26 09:38:33;;;;;;;38.65;24.23;;;;;;;20.66;23.92;97329.44;5029410;28;20049;-73
2022/03/26 09:41:01;;;;;;;40.60;24.17;;;;;;;20.76;24.88;97330.84;5038394;28;20251;-76
2022/03/26 09:43:29;;;;;;;39.08;23.15;;;;;;;20.99;23.60;97329.00;5028100;28;20053;-74
2022/03/26 09:45:57;;;;;;;39.72;23.52;;;;;;;21.16;22.66;97332.53;5026775;28;20061;-75
2022/03/26 09:48:25;;;;;;;41.67;23.20;;;;;;;21.18;22.01;97335.72;5045168;28;20699;-74
2022/03/26 09:50:54;;;;;;;38.78;22.63;;;;;;;21.23;21.34;97339.00;5028349;28;20049;-73
2022/03/26 09:53:20;;;;;;;40.97;23.25;;;;;;;21.24;21.85;97339.81;5028703;28;20053;-73
2022/03/26 09:55:48;;;;;;;38.95;22.92;;;;;;;21.34;21.70;97333.72;5028519;28;20060;-75
2022/03/26 09:58:14;;;;;;;38.83;23.13;;;;;;;21.34;21.73;97339.25;5028033;28;20053;-73
2022/03/26 10:00:41;;;;;;;40.13;23.23;;;;;;;21.34;21.72;97330.94;5028684;28;20529;-73
2022/03/26 10:03:09;;;;;;;38.75;23.27;;;;;;;21.34;21.97;97334.50;5027590;28;20057;-74
2022/03/26 10:05:36;;;;;;;38.15;23.48;;;;;;;21.22;22.38;97331.06;5029034;28;20041;-73
2022/03/26 10:08:21;;;;;;;41.05;23.73;;;;;;;21.33;22.92;97332.91;5027445;28;20057;-73
2022/03/26 10:10:49;;;;;;;37.17;23.13;;;;;;;21.31;22.57;97329.72;5029067;28;20049;-73
2022/03/26 10:13:34;;;;;;;37.08;23.48;;;;;;;21.37;22.29;97327.47;5046662;28;20064;-73
2022/03/26 10:16:01;;;;;;;38.40;22.85;;;;;;;21.27;22.58;97322.47;5048056;28;20562;-73
2022/03/26 10:18:35;;;;;;;39.13;24.20;;;;;;;21.30;22.19;97319.81;5048069;28;20036;-72
2022/03/26 10:21:02;;;;;;;35.83;23.75;;;;;;;21.21;22.15;97329.47;5046736;28;20582;-73
2022/03/26 10:23:29;;;;;;;38.58;23.50;;;;;;;21.09;22.33;97317.38;5048604;28;20053;-76
2022/03/26 10:26:10;;;;;;;39.58;23.13;;;;;;;21.09;21.79;97317.38;5046849;28;20122;-74
2022/03/26 10:28:37;;;;;;;177.30;152.38;;;;;;;21.04;22.12;97309.34;5048175;28;20053;-74
2022/03/26 10:34:04;;;;;;;48.45;31.23;;;;;;;21.07;21.82;97313.34;5046988;28;20180;-75
2022/03/26 10:36:30;;;;;;;45.70;30.58;;;;;;;20.96;22.30;97304.81;5040888;28;20041;-75
2022/03/26 10:38:57;;;;;;;40.92;25.23;;;;;;;20.92;23.48;97305.88;5036275;28;20536;-74
2022/03/26 10:41:23;;;;;;;44.97;30.45;;;;;;;20.87;23.18;97311.72;5033774;28;20504;-75
2022/03/26 10:44:06;;;;;;;41.05;23.92;;;;;;;20.81;23.11;97305.66;5030339;28;20540;-74
2022/03/26 10:46:41;;;;;;;;;;;;;;;20.80;22.74;97304.84;5030155;28;20069;-75
2022/03/26 10:49:09;;;;;;;37.55;23.05;;;;;;;20.82;22.83;97301.72;5024786;28;19928;-74
2022/03/26 10:51:36;;;;;;;43.33;24.38;;;;;;;20.72;22.32;97302.28;5025178;28;20077;-75
2022/03/26 10:54:09;;;;;;;40.45;26.23;;;;;;;20.74;22.69;97288.91;5029786;28;20095;-74
2022/03/26 10:56:37;;;;;;;49.53;35.60;;;;;;;20.82;22.42;97294.22;5025708;28;20114;-75
2022/03/26 10:59:04;;;;;;;41.50;25.70;;;;;;;20.85;21.66;97296.28;5026470;28;20103;-74
2022/03/26 11:01:31;;;;;;;42.17;29.58;;;;;;;20.96;22.76;97298.47;5031265;28;20144;-74
2022/03/26 11:03:58;;;;;;;203.40;159.27;;;;;;;21.00;21.73;97291.84;5032544;28;20056;-74
2022/03/26 11:06:27;;;;;;;53.53;35.58;;;;;;;21.19;22.38;97293.00;5028931;28;20416;-75
2022/03/26 11:08:59;;;;;;;57.17;38.60;;;;;;;21.38;21.93;97295.81;5034388;28;20064;-74
2022/03/26 11:11:29;;;;;;;41.70;25.40;;;;;;;21.49;21.43;97284.94;5033286;28;20055;-74
2022/03/26 11:14:01;;;;;;;39.35;23.83;;;;;;;21.71;20.94;97286.13;5037860;28;20059;-76
2022/03/26 11:16:37;;;;;;;51.95;32.22;;;;;;;21.96;20.96;97276.28;5027752;28;20507;-76
2022/03/26 11:19:14;;;;;;;34.00;22.77;;;;;;;22.22;19.98;97277.53;5028801;28;20076;-74
2022/03/26 11:21:58;;;;;;;44.70;28.58;;;;;;;22.25;20.07;97282.34;5031047;28;20049;-75
2022/03/26 11:24:42;;;;;;;235.80;186.02;;;;;;;22.14;20.35;97282.97;5031115;28;20049;-76